sensor_id;sensor_type;location;lat;lon;timestamp;temperature;humidity
18147;DHT22;9199;48.832;9.182;2023-04-24T00:01:23;11.60;99.90
18147;DHT22;9199;48.832;9.182;2023-04-24T00:03:50;11.70;99.90
18147;DHT22;9199;48.832;9.182;2023-04-24T00:06:17;11.70;99.90
18147;DHT22;9199;48.832;9.182;2023-04-24T00:08:44;11.70;99.90
18147;DHT22;9199;48.832;9.182;2023-04-24T00:11:12;11.80;99.90
18147;DHT22;9199;48.832;9.182;2023-04-24T00:13:39;11.80;99.90
18147;DHT22;9199;48.832;9.182;2023-04-24T00:16:05;11.90;99.90
18147;DHT22;9199;48.832;9.182;2023-04-24T00:18:32;12.00;99.90
18147;DHT22;9199;48.832;9.182;2023-04-24T00:20:59;12.00;99.90
18147;DHT22;9199;48.832;9.182;2023-04-24T00:23:26;12.10;99.90
18147;DHT22;9199;48.832;9.182;2023-04-24T00:25:53;12.10;99.90
18147;DHT22;9199;48.832;9.182;2023-04-24T00:28:21;12.10;99.90
18147;DHT22;9199;48.832;9.182;2023-04-24T00:30:47;12.10;99.90
18147;DHT22;9199;48.832;9.182;2023-04-24T00:33:14;12.20;99.90
18147;DHT22;9199;48.832;9.182;2023-04-24T00:35:41;12.20;99.90
18147;DHT22;9199;48.832;9.182;2023-04-24T00:38:08;12.30;99.90
18147;DHT22;9199;48.832;9.182;2023-04-24T00:40:34;12.30;99.90
18147;DHT22;9199;48.832;9.182;2023-04-24T00:43:01;12.40;99.90
18147;DHT22;9199;48.832;9.182;2023-04-24T00:45:29;12.40;99.90
18147;DHT22;9199;48.832;9.182;2023-04-24T00:47:57;12.40;99.90
18147;DHT22;9199;48.832;9.182;2023-04-24T00:50:24;12.40;99.90
18147;DHT22;9199;48.832;9.182;2023-04-24T00:52:51;12.40;99.90
18147;DHT22;9199;48.832;9.182;2023-04-24T00:55:18;12.40;99.90
18147;DHT22;9199;48.832;9.182;2023-04-24T00:57:45;12.40;99.90
18147;DHT22;9199;48.832;9.182;2023-04-24T01:00:13;12.30;99.90
18147;DHT22;9199;48.832;9.182;2023-04-24T01:02:43;12.30;99.90
18147;DHT22;9199;48.832;9.182;2023-04-24T01:05:10;12.30;99.90
18147;DHT22;9199;48.832;9.182;2023-04-24T01:07:39;12.30;99.90
18147;DHT22;9199;48.832;9.182;2023-04-24T01:10:07;12.30;99.90
18147;DHT22;9199;48.832;9.182;2023-04-24T01:12:34;12.30;99.90
18147;DHT22;9199;48.832;9.182;2023-04-24T01:15:01;12.30;99.90
18147;DHT22;9199;48.832;9.182;2023-04-24T01:17:29;12.30;99.90
18147;DHT22;9199;48.832;9.182;2023-04-24T01:19:58;12.30;99.90
18147;DHT22;9199;48.832;9.182;2023-04-24T01:22:26;12.30;99.90
18147;DHT22;9199;48.832;9.182;2023-04-24T01:24:53;12.30;99.90
18147;DHT22;9199;48.832;9.182;2023-04-24T01:27:20;12.30;99.90
18147;DHT22;9199;48.832;9.182;2023-04-24T01:29:46;12.30;99.90
18147;DHT22;9199;48.832;9.182;2023-04-24T01:32:15;12.20;99.90
18147;DHT22;9199;48.832;9.182;2023-04-24T01:34:42;12.20;99.90
18147;DHT22;9199;48.832;9.182;2023-04-24T01:37:09;12.20;99.90
18147;DHT22;9199;48.832;9.182;2023-04-24T01:39:37;12.20;99.90
18147;DHT22;9199;48.832;9.182;2023-04-24T01:42:05;12.10;99.90
18147;DHT22;9199;48.832;9.182;2023-04-24T01:44:32;12.10;99.90
18147;DHT22;9199;48.832;9.182;2023-04-24T01:47:00;12.10;99.90
18147;DHT22;9199;48.832;9.182;2023-04-24T01:49:27;12.10;99.90
18147;DHT22;9199;48.832;9.182;2023-04-24T01:51:54;12.10;99.90
18147;DHT22;9199;48.832;9.182;2023-04-24T01:54:20;12.20;99.90
18147;DHT22;9199;48.832;9.182;2023-04-24T01:56:48;12.20;99.90
18147;DHT22;9199;48.832;9.182;2023-04-24T01:59:15;12.10;99.90
18147;DHT22;9199;48.832;9.182;2023-04-24T02:01:43;12.00;99.90
18147;DHT22;9199;48.832;9.182;2023-04-24T02:04:10;12.10;99.90
18147;DHT22;9199;48.832;9.182;2023-04-24T02:06:36;12.00;99.90
18147;DHT22;9199;48.832;9.182;2023-04-24T02:09:03;11.90;99.90
18147;DHT22;9199;48.832;9.182;2023-04-24T02:11:30;12.00;99.90
18147;DHT22;9199;48.832;9.182;2023-04-24T02:13:58;11.90;99.90
18147;DHT22;9199;48.832;9.182;2023-04-24T02:16:24;12.00;99.90
18147;DHT22;9199;48.832;9.182;2023-04-24T02:18:51;11.90;99.90
18147;DHT22;9199;48.832;9.182;2023-04-24T02:21:18;11.90;99.90
18147;DHT22;9199;48.832;9.182;2023-04-24T02:23:44;11.90;99.90
18147;DHT22;9199;48.832;9.182;2023-04-24T02:26:11;11.80;99.90
18147;DHT22;9199;48.832;9.182;2023-04-24T02:28:38;11.80;99.90
18147;DHT22;9199;48.832;9.182;2023-04-24T02:31:06;11.90;99.90
18147;DHT22;9199;48.832;9.182;2023-04-24T02:33:33;11.90;99.90
18147;DHT22;9199;48.832;9.182;2023-04-24T02:35:59;11.90;99.90
18147;DHT22;9199;48.832;9.182;2023-04-24T02:38:26;11.90;99.90
18147;DHT22;9199;48.832;9.182;2023-04-24T02:40:53;12.00;99.90
18147;DHT22;9199;48.832;9.182;2023-04-24T02:43:19;12.00;99.90
18147;DHT22;9199;48.832;9.182;2023-04-24T02:45:46;12.00;99.90
18147;DHT22;9199;48.832;9.182;2023-04-24T02:48:14;11.90;99.90
18147;DHT22;9199;48.832;9.182;2023-04-24T02:50:42;11.80;99.90
18147;DHT22;9199;48.832;9.182;2023-04-24T02:53:12;11.60;99.90
18147;DHT22;9199;48.832;9.182;2023-04-24T02:55:38;11.50;99.90
18147;DHT22;9199;48.832;9.182;2023-04-24T02:58:05;11.40;99.90
18147;DHT22;9199;48.832;9.182;2023-04-24T03:00:32;11.30;99.90
18147;DHT22;9199;48.832;9.182;2023-04-24T03:02:59;11.30;99.90
18147;DHT22;9199;48.832;9.182;2023-04-24T03:05:27;11.20;99.90
18147;DHT22;9199;48.832;9.182;2023-04-24T03:07:54;11.10;99.90
18147;DHT22;9199;48.832;9.182;2023-04-24T03:10:21;11.10;99.90
18147;DHT22;9199;48.832;9.182;2023-04-24T03:12:48;11.00;99.90
18147;DHT22;9199;48.832;9.182;2023-04-24T03:15:15;11.00;99.90
18147;DHT22;9199;48.832;9.182;2023-04-24T03:17:42;11.00;99.90
18147;DHT22;9199;48.832;9.182;2023-04-24T03:20:09;11.00;99.90
18147;DHT22;9199;48.832;9.182;2023-04-24T03:22:37;11.00;99.90
18147;DHT22;9199;48.832;9.182;2023-04-24T03:25:05;10.90;99.90
18147;DHT22;9199;48.832;9.182;2023-04-24T03:27:33;10.90;99.90
18147;DHT22;9199;48.832;9.182;2023-04-24T03:30:00;10.90;99.90
18147;DHT22;9199;48.832;9.182;2023-04-24T03:32:27;10.90;99.90
18147;DHT22;9199;48.832;9.182;2023-04-24T03:34:54;10.80;99.90
18147;DHT22;9199;48.832;9.182;2023-04-24T03:37:20;10.90;99.90
18147;DHT22;9199;48.832;9.182;2023-04-24T03:39:48;10.90;99.90
18147;DHT22;9199;48.832;9.182;2023-04-24T03:42:15;10.90;99.90
18147;DHT22;9199;48.832;9.182;2023-04-24T03:44:42;10.90;99.90
18147;DHT22;9199;48.832;9.182;2023-04-24T03:47:08;10.90;99.90
18147;DHT22;9199;48.832;9.182;2023-04-24T03:49:35;10.90;99.90
18147;DHT22;9199;48.832;9.182;2023-04-24T03:52:02;10.80;99.90
18147;DHT22;9199;48.832;9.182;2023-04-24T03:54:29;10.80;99.90
18147;DHT22;9199;48.832;9.182;2023-04-24T03:56:57;10.80;99.90
18147;DHT22;9199;48.832;9.182;2023-04-24T03:59:23;10.80;99.90
18147;DHT22;9199;48.832;9.182;2023-04-24T04:01:50;10.70;99.90
18147;DHT22;9199;48.832;9.182;2023-04-24T04:04:17;10.70;99.90
18147;DHT22;9199;48.832;9.182;2023-04-24T04:06:44;10.70;99.90
18147;DHT22;9199;48.832;9.182;2023-04-24T04:09:11;10.70;99.90
18147;DHT22;9199;48.832;9.182;2023-04-24T04:11:38;10.80;99.90
18147;DHT22;9199;48.832;9.182;2023-04-24T04:14:07;10.80;99.90
18147;DHT22;9199;48.832;9.182;2023-04-24T04:16:33;10.80;99.90
18147;DHT22;9199;48.832;9.182;2023-04-24T04:19:01;10.90;99.90
18147;DHT22;9199;48.832;9.182;2023-04-24T04:21:28;11.00;99.90
18147;DHT22;9199;48.832;9.182;2023-04-24T04:23:56;11.00;99.90
18147;DHT22;9199;48.832;9.182;2023-04-24T04:26:23;11.00;99.90
18147;DHT22;9199;48.832;9.182;2023-04-24T04:28:51;11.00;99.90
18147;DHT22;9199;48.832;9.182;2023-04-24T04:31:19;11.00;99.90
18147;DHT22;9199;48.832;9.182;2023-04-24T04:33:46;10.90;99.90
18147;DHT22;9199;48.832;9.182;2023-04-24T04:36:13;10.80;99.90
18147;DHT22;9199;48.832;9.182;2023-04-24T04:38:39;10.80;99.90
18147;DHT22;9199;48.832;9.182;2023-04-24T04:41:08;10.70;99.90
18147;DHT22;9199;48.832;9.182;2023-04-24T04:43:35;10.80;99.90
18147;DHT22;9199;48.832;9.182;2023-04-24T04:46:02;10.80;99.90
18147;DHT22;9199;48.832;9.182;2023-04-24T04:48:30;10.80;99.90
18147;DHT22;9199;48.832;9.182;2023-04-24T04:50:57;10.80;99.90
18147;DHT22;9199;48.832;9.182;2023-04-24T04:53:24;10.80;99.90
18147;DHT22;9199;48.832;9.182;2023-04-24T04:55:51;10.80;99.90
18147;DHT22;9199;48.832;9.182;2023-04-24T04:58:18;10.80;99.90
18147;DHT22;9199;48.832;9.182;2023-04-24T05:00:45;10.70;99.90
18147;DHT22;9199;48.832;9.182;2023-04-24T05:03:12;10.70;99.90
18147;DHT22;9199;48.832;9.182;2023-04-24T05:05:40;10.70;99.90
18147;DHT22;9199;48.832;9.182;2023-04-24T05:08:06;11.00;99.90
18147;DHT22;9199;48.832;9.182;2023-04-24T05:10:33;11.30;99.90
18147;DHT22;9199;48.832;9.182;2023-04-24T05:13:02;11.60;99.90
18147;DHT22;9199;48.832;9.182;2023-04-24T05:15:29;11.70;99.90
18147;DHT22;9199;48.832;9.182;2023-04-24T05:17:55;11.80;99.90
18147;DHT22;9199;48.832;9.182;2023-04-24T05:20:22;11.90;99.90
18147;DHT22;9199;48.832;9.182;2023-04-24T05:22:50;12.00;99.90
18147;DHT22;9199;48.832;9.182;2023-04-24T05:25:17;11.80;99.90
18147;DHT22;9199;48.832;9.182;2023-04-24T05:27:44;11.60;99.90
18147;DHT22;9199;48.832;9.182;2023-04-24T05:30:12;11.40;99.90
18147;DHT22;9199;48.832;9.182;2023-04-24T05:32:38;11.20;99.90
18147;DHT22;9199;48.832;9.182;2023-04-24T05:35:05;11.10;99.90
18147;DHT22;9199;48.832;9.182;2023-04-24T05:37:33;11.10;99.90
18147;DHT22;9199;48.832;9.182;2023-04-24T05:40:01;11.10;99.90
18147;DHT22;9199;48.832;9.182;2023-04-24T05:42:29;11.10;99.90
18147;DHT22;9199;48.832;9.182;2023-04-24T05:44:56;11.00;99.90
18147;DHT22;9199;48.832;9.182;2023-04-24T05:47:23;11.00;99.90
18147;DHT22;9199;48.832;9.182;2023-04-24T05:49:49;10.90;99.90
18147;DHT22;9199;48.832;9.182;2023-04-24T05:52:16;10.90;99.90
18147;DHT22;9199;48.832;9.182;2023-04-24T05:54:43;11.00;99.90
18147;DHT22;9199;48.832;9.182;2023-04-24T05:57:11;11.00;99.90
18147;DHT22;9199;48.832;9.182;2023-04-24T05:59:38;11.10;99.90
18147;DHT22;9199;48.832;9.182;2023-04-24T06:02:04;11.00;99.90
18147;DHT22;9199;48.832;9.182;2023-04-24T06:04:32;11.10;99.90
18147;DHT22;9199;48.832;9.182;2023-04-24T06:06:59;11.10;99.90
18147;DHT22;9199;48.832;9.182;2023-04-24T06:09:26;11.10;99.90
18147;DHT22;9199;48.832;9.182;2023-04-24T06:11:52;11.10;99.90
18147;DHT22;9199;48.832;9.182;2023-04-24T06:14:21;11.10;99.90
18147;DHT22;9199;48.832;9.182;2023-04-24T06:16:48;11.00;99.90
18147;DHT22;9199;48.832;9.182;2023-04-24T06:19:15;11.00;99.90
18147;DHT22;9199;48.832;9.182;2023-04-24T06:21:41;11.30;99.90
18147;DHT22;9199;48.832;9.182;2023-04-24T06:24:08;11.40;99.90
18147;DHT22;9199;48.832;9.182;2023-04-24T06:26:35;11.70;99.90
18147;DHT22;9199;48.832;9.182;2023-04-24T06:29:02;12.20;99.90
18147;DHT22;9199;48.832;9.182;2023-04-24T06:31:30;12.70;99.90
18147;DHT22;9199;48.832;9.182;2023-04-24T06:34:02;13.00;99.90
18147;DHT22;9199;48.832;9.182;2023-04-24T06:36:29;13.00;99.90
18147;DHT22;9199;48.832;9.182;2023-04-24T06:38:56;13.00;99.90
18147;DHT22;9199;48.832;9.182;2023-04-24T06:41:23;13.10;99.90
18147;DHT22;9199;48.832;9.182;2023-04-24T06:43:50;13.20;99.90
18147;DHT22;9199;48.832;9.182;2023-04-24T06:46:17;13.30;99.90
18147;DHT22;9199;48.832;9.182;2023-04-24T06:48:45;13.90;99.90
18147;DHT22;9199;48.832;9.182;2023-04-24T06:51:11;14.10;99.90
18147;DHT22;9199;48.832;9.182;2023-04-24T06:53:38;14.10;99.90
18147;DHT22;9199;48.832;9.182;2023-04-24T06:56:05;14.30;99.90
18147;DHT22;9199;48.832;9.182;2023-04-24T06:58:31;14.70;99.90
18147;DHT22;9199;48.832;9.182;2023-04-24T07:00:58;14.80;99.90
18147;DHT22;9199;48.832;9.182;2023-04-24T07:03:25;14.60;99.90
18147;DHT22;9199;48.832;9.182;2023-04-24T07:05:53;14.30;99.90
18147;DHT22;9199;48.832;9.182;2023-04-24T07:08:21;14.10;99.90
18147;DHT22;9199;48.832;9.182;2023-04-24T07:10:48;14.10;99.90
18147;DHT22;9199;48.832;9.182;2023-04-24T07:13:16;14.20;99.90
18147;DHT22;9199;48.832;9.182;2023-04-24T07:15:42;14.30;99.90
18147;DHT22;9199;48.832;9.182;2023-04-24T07:18:09;14.10;99.90
18147;DHT22;9199;48.832;9.182;2023-04-24T07:20:36;13.90;99.90
18147;DHT22;9199;48.832;9.182;2023-04-24T07:23:04;13.70;99.90
18147;DHT22;9199;48.832;9.182;2023-04-24T07:25:31;13.50;99.90
18147;DHT22;9199;48.832;9.182;2023-04-24T07:27:58;13.30;99.90
18147;DHT22;9199;48.832;9.182;2023-04-24T07:30:24;13.20;99.90
18147;DHT22;9199;48.832;9.182;2023-04-24T07:32:51;13.10;99.90
18147;DHT22;9199;48.832;9.182;2023-04-24T07:35:18;13.20;99.90
18147;DHT22;9199;48.832;9.182;2023-04-24T07:37:45;13.40;99.90
18147;DHT22;9199;48.832;9.182;2023-04-24T07:40:13;13.90;99.90
18147;DHT22;9199;48.832;9.182;2023-04-24T07:42:40;14.50;99.90
18147;DHT22;9199;48.832;9.182;2023-04-24T07:45:07;14.80;99.90
18147;DHT22;9199;48.832;9.182;2023-04-24T07:47:34;15.10;99.20
18147;DHT22;9199;48.832;9.182;2023-04-24T07:50:02;15.10;98.20
18147;DHT22;9199;48.832;9.182;2023-04-24T07:52:29;15.00;97.70
18147;DHT22;9199;48.832;9.182;2023-04-24T07:54:56;14.80;97.00
18147;DHT22;9199;48.832;9.182;2023-04-24T07:57:27;14.90;95.90
18147;DHT22;9199;48.832;9.182;2023-04-24T07:59:53;14.60;95.90
18147;DHT22;9199;48.832;9.182;2023-04-24T08:02:20;14.90;95.30
18147;DHT22;9199;48.832;9.182;2023-04-24T08:04:51;15.60;94.30
18147;DHT22;9199;48.832;9.182;2023-04-24T08:07:18;16.10;92.90
18147;DHT22;9199;48.832;9.182;2023-04-24T08:09:45;16.00;93.20
18147;DHT22;9199;48.832;9.182;2023-04-24T08:12:11;15.70;91.90
18147;DHT22;9199;48.832;9.182;2023-04-24T08:14:40;15.60;92.70
18147;DHT22;9199;48.832;9.182;2023-04-24T08:17:06;15.70;92.50
18147;DHT22;9199;48.832;9.182;2023-04-24T08:19:33;15.90;92.70
18147;DHT22;9199;48.832;9.182;2023-04-24T08:22:00;15.80;92.80
18147;DHT22;9199;48.832;9.182;2023-04-24T08:24:26;15.50;93.30
18147;DHT22;9199;48.832;9.182;2023-04-24T08:26:53;15.00;94.20
18147;DHT22;9199;48.832;9.182;2023-04-24T08:29:22;14.60;94.40
18147;DHT22;9199;48.832;9.182;2023-04-24T08:31:50;14.60;94.70
18147;DHT22;9199;48.832;9.182;2023-04-24T08:34:16;14.50;94.20
18147;DHT22;9199;48.832;9.182;2023-04-24T08:36:43;14.10;94.40
18147;DHT22;9199;48.832;9.182;2023-04-24T08:39:10;13.70;95.10
18147;DHT22;9199;48.832;9.182;2023-04-24T08:41:37;13.80;95.20
18147;DHT22;9199;48.832;9.182;2023-04-24T08:44:04;13.90;94.90
18147;DHT22;9199;48.832;9.182;2023-04-24T08:46:32;13.90;94.70
18147;DHT22;9199;48.832;9.182;2023-04-24T08:49:01;13.60;94.40
18147;DHT22;9199;48.832;9.182;2023-04-24T08:51:29;13.30;95.20
18147;DHT22;9199;48.832;9.182;2023-04-24T08:53:56;13.30;95.50
18147;DHT22;9199;48.832;9.182;2023-04-24T08:56:23;13.30;95.00
18147;DHT22;9199;48.832;9.182;2023-04-24T08:58:51;13.10;95.00
18147;DHT22;9199;48.832;9.182;2023-04-24T09:01:18;13.10;95.40
18147;DHT22;9199;48.832;9.182;2023-04-24T09:03:47;13.10;95.30
18147;DHT22;9199;48.832;9.182;2023-04-24T09:06:17;13.60;95.10
18147;DHT22;9199;48.832;9.182;2023-04-24T09:08:45;13.90;94.10
18147;DHT22;9199;48.832;9.182;2023-04-24T09:11:12;14.00;93.70
18147;DHT22;9199;48.832;9.182;2023-04-24T09:13:39;14.80;93.10
18147;DHT22;9199;48.832;9.182;2023-04-24T09:16:05;15.00;92.80
18147;DHT22;9199;48.832;9.182;2023-04-24T09:18:32;14.60;92.80
18147;DHT22;9199;48.832;9.182;2023-04-24T09:21:02;14.20;92.70
18147;DHT22;9199;48.832;9.182;2023-04-24T09:23:31;13.40;93.40
18147;DHT22;9199;48.832;9.182;2023-04-24T09:25:58;13.00;95.30
18147;DHT22;9199;48.832;9.182;2023-04-24T09:28:29;12.80;97.80
18147;DHT22;9199;48.832;9.182;2023-04-24T09:31:06;12.40;98.10
18147;DHT22;9199;48.832;9.182;2023-04-24T09:33:34;12.20;97.90
18147;DHT22;9199;48.832;9.182;2023-04-24T09:36:01;12.20;97.90
18147;DHT22;9199;48.832;9.182;2023-04-24T09:38:34;12.50;97.30
18147;DHT22;9199;48.832;9.182;2023-04-24T09:41:02;12.70;96.40
18147;DHT22;9199;48.832;9.182;2023-04-24T09:43:30;13.00;95.80
18147;DHT22;9199;48.832;9.182;2023-04-24T09:45:58;13.70;95.10
18147;DHT22;9199;48.832;9.182;2023-04-24T09:48:33;15.20;94.00
18147;DHT22;9199;48.832;9.182;2023-04-24T09:51:00;16.70;91.40
18147;DHT22;9199;48.832;9.182;2023-04-24T09:53:29;17.60;89.20
18147;DHT22;9199;48.832;9.182;2023-04-24T09:56:02;17.30;87.30
18147;DHT22;9199;48.832;9.182;2023-04-24T09:58:29;16.20;89.20
18147;DHT22;9199;48.832;9.182;2023-04-24T10:00:56;15.40;90.20
18147;DHT22;9199;48.832;9.182;2023-04-24T10:03:24;15.90;90.00
18147;DHT22;9199;48.832;9.182;2023-04-24T10:05:52;17.00;86.90
18147;DHT22;9199;48.832;9.182;2023-04-24T10:08:20;17.60;83.70
18147;DHT22;9199;48.832;9.182;2023-04-24T10:10:47;18.10;82.60
18147;DHT22;9199;48.832;9.182;2023-04-24T10:13:15;18.60;80.30
18147;DHT22;9199;48.832;9.182;2023-04-24T10:15:42;19.00;77.50
18147;DHT22;9199;48.832;9.182;2023-04-24T10:18:10;19.40;74.20
18147;DHT22;9199;48.832;9.182;2023-04-24T10:20:38;19.30;73.70
18147;DHT22;9199;48.832;9.182;2023-04-24T10:23:05;19.70;70.40
18147;DHT22;9199;48.832;9.182;2023-04-24T10:25:33;19.70;69.00
18147;DHT22;9199;48.832;9.182;2023-04-24T10:28:01;19.00;69.30
18147;DHT22;9199;48.832;9.182;2023-04-24T10:30:30;18.20;71.30
18147;DHT22;9199;48.832;9.182;2023-04-24T10:33:00;17.40;71.60
18147;DHT22;9199;48.832;9.182;2023-04-24T10:35:30;16.70;73.00
18147;DHT22;9199;48.832;9.182;2023-04-24T10:38:01;16.30;74.30
18147;DHT22;9199;48.832;9.182;2023-04-24T10:40:31;15.60;75.60
18147;DHT22;9199;48.832;9.182;2023-04-24T10:42:59;14.70;76.20
18147;DHT22;9199;48.832;9.182;2023-04-24T10:45:26;14.00;77.00
18147;DHT22;9199;48.832;9.182;2023-04-24T10:47:57;13.70;79.40
18147;DHT22;9199;48.832;9.182;2023-04-24T10:50:26;13.40;80.70
18147;DHT22;9199;48.832;9.182;2023-04-24T10:52:53;13.40;81.80
18147;DHT22;9199;48.832;9.182;2023-04-24T10:55:42;13.50;83.40
18147;DHT22;9199;48.832;9.182;2023-04-24T10:58:10;13.80;82.80
18147;DHT22;9199;48.832;9.182;2023-04-24T11:00:37;14.00;82.80
18147;DHT22;9199;48.832;9.182;2023-04-24T11:03:06;13.80;80.30
18147;DHT22;9199;48.832;9.182;2023-04-24T11:05:50;13.70;81.80
18147;DHT22;9199;48.832;9.182;2023-04-24T11:08:26;13.80;82.10
18147;DHT22;9199;48.832;9.182;2023-04-24T11:11:02;13.70;82.60
18147;DHT22;9199;48.832;9.182;2023-04-24T11:16:27;13.80;83.40
18147;DHT22;9199;48.832;9.182;2023-04-24T11:19:05;14.40;82.80
18147;DHT22;9199;48.832;9.182;2023-04-24T11:21:39;15.60;79.50
18147;DHT22;9199;48.832;9.182;2023-04-24T11:24:27;16.10;79.20
18147;DHT22;9199;48.832;9.182;2023-04-24T11:26:55;17.60;76.70
18147;DHT22;9199;48.832;9.182;2023-04-24T11:29:22;18.20;74.00
18147;DHT22;9199;48.832;9.182;2023-04-24T11:31:49;19.00;71.60
18147;DHT22;9199;48.832;9.182;2023-04-24T11:34:18;19.50;70.20
18147;DHT22;9199;48.832;9.182;2023-04-24T11:36:46;19.20;67.80
18147;DHT22;9199;48.832;9.182;2023-04-24T11:39:13;18.50;68.70
18147;DHT22;9199;48.832;9.182;2023-04-24T11:41:40;18.20;69.40
18147;DHT22;9199;48.832;9.182;2023-04-24T11:44:09;17.60;71.40
18147;DHT22;9199;48.832;9.182;2023-04-24T11:46:36;17.20;73.60
18147;DHT22;9199;48.832;9.182;2023-04-24T11:49:05;16.70;73.80
18147;DHT22;9199;48.832;9.182;2023-04-24T11:51:34;15.80;75.40
18147;DHT22;9199;48.832;9.182;2023-04-24T11:54:01;14.70;79.80
18147;DHT22;9199;48.832;9.182;2023-04-24T11:56:28;14.40;80.80
18147;DHT22;9199;48.832;9.182;2023-04-24T11:58:54;14.30;82.80
18147;DHT22;9199;48.832;9.182;2023-04-24T12:01:21;14.80;81.90
18147;DHT22;9199;48.832;9.182;2023-04-24T12:03:49;15.60;79.20
18147;DHT22;9199;48.832;9.182;2023-04-24T12:06:16;16.20;76.10
18147;DHT22;9199;48.832;9.182;2023-04-24T12:08:47;15.90;74.40
18147;DHT22;9199;48.832;9.182;2023-04-24T12:11:15;15.70;75.20
18147;DHT22;9199;48.832;9.182;2023-04-24T12:13:43;15.60;76.80
18147;DHT22;9199;48.832;9.182;2023-04-24T12:16:10;15.70;77.80
18147;DHT22;9199;48.832;9.182;2023-04-24T12:18:41;15.50;78.20
18147;DHT22;9199;48.832;9.182;2023-04-24T12:21:18;15.00;79.00
18147;DHT22;9199;48.832;9.182;2023-04-24T12:23:47;14.40;80.40
18147;DHT22;9199;48.832;9.182;2023-04-24T12:26:16;14.10;82.50
18147;DHT22;9199;48.832;9.182;2023-04-24T12:28:47;14.10;82.70
18147;DHT22;9199;48.832;9.182;2023-04-24T12:31:14;14.10;82.20
18147;DHT22;9199;48.832;9.182;2023-04-24T12:33:41;14.40;81.80
18147;DHT22;9199;48.832;9.182;2023-04-24T12:36:10;14.30;81.90
18147;DHT22;9199;48.832;9.182;2023-04-24T12:38:37;14.00;82.20
18147;DHT22;9199;48.832;9.182;2023-04-24T12:41:08;13.80;82.80
18147;DHT22;9199;48.832;9.182;2023-04-24T12:43:36;13.70;82.30
18147;DHT22;9199;48.832;9.182;2023-04-24T12:46:03;13.90;82.90
18147;DHT22;9199;48.832;9.182;2023-04-24T12:48:30;14.40;82.10
18147;DHT22;9199;48.832;9.182;2023-04-24T12:50:57;14.80;81.40
18147;DHT22;9199;48.832;9.182;2023-04-24T12:53:27;14.80;80.80
18147;DHT22;9199;48.832;9.182;2023-04-24T12:55:54;14.60;81.50
18147;DHT22;9199;48.832;9.182;2023-04-24T12:58:22;14.40;82.50
18147;DHT22;9199;48.832;9.182;2023-04-24T13:00:49;14.10;83.10
18147;DHT22;9199;48.832;9.182;2023-04-24T13:03:16;13.60;86.70
18147;DHT22;9199;48.832;9.182;2023-04-24T13:05:43;13.50;90.20
18147;DHT22;9199;48.832;9.182;2023-04-24T13:08:10;13.60;90.90
18147;DHT22;9199;48.832;9.182;2023-04-24T13:10:38;14.10;90.90
18147;DHT22;9199;48.832;9.182;2023-04-24T13:13:05;14.70;90.10
18147;DHT22;9199;48.832;9.182;2023-04-24T13:15:34;15.70;87.70
18147;DHT22;9199;48.832;9.182;2023-04-24T13:18:00;16.70;84.60
18147;DHT22;9199;48.832;9.182;2023-04-24T13:20:27;16.70;83.60
18147;DHT22;9199;48.832;9.182;2023-04-24T13:22:54;16.20;82.40
18147;DHT22;9199;48.832;9.182;2023-04-24T13:25:21;15.70;83.40
18147;DHT22;9199;48.832;9.182;2023-04-24T13:27:48;15.50;84.40
18147;DHT22;9199;48.832;9.182;2023-04-24T13:30:16;15.30;83.70
18147;DHT22;9199;48.832;9.182;2023-04-24T13:32:44;14.80;84.90
18147;DHT22;9199;48.832;9.182;2023-04-24T13:35:11;14.80;86.20
18147;DHT22;9199;48.832;9.182;2023-04-24T13:37:37;15.00;86.30
18147;DHT22;9199;48.832;9.182;2023-04-24T13:40:05;14.80;85.50
18147;DHT22;9199;48.832;9.182;2023-04-24T13:42:32;14.70;85.50
18147;DHT22;9199;48.832;9.182;2023-04-24T13:44:59;14.20;87.10
18147;DHT22;9199;48.832;9.182;2023-04-24T13:47:26;13.80;88.70
18147;DHT22;9199;48.832;9.182;2023-04-24T13:49:54;13.70;88.50
18147;DHT22;9199;48.832;9.182;2023-04-24T13:52:20;13.80;87.30
18147;DHT22;9199;48.832;9.182;2023-04-24T13:54:47;14.00;88.20
18147;DHT22;9199;48.832;9.182;2023-04-24T13:57:14;15.00;87.90
18147;DHT22;9199;48.832;9.182;2023-04-24T13:59:41;15.80;84.60
18147;DHT22;9199;48.832;9.182;2023-04-24T14:02:08;16.30;84.80
18147;DHT22;9199;48.832;9.182;2023-04-24T14:04:35;16.20;84.40
18147;DHT22;9199;48.832;9.182;2023-04-24T14:07:03;16.50;85.60
18147;DHT22;9199;48.832;9.182;2023-04-24T14:09:29;17.30;83.80
18147;DHT22;9199;48.832;9.182;2023-04-24T14:11:56;17.40;79.80
18147;DHT22;9199;48.832;9.182;2023-04-24T14:14:23;16.70;79.90
18147;DHT22;9199;48.832;9.182;2023-04-24T14:16:49;16.00;81.50
18147;DHT22;9199;48.832;9.182;2023-04-24T14:19:16;16.70;82.00
18147;DHT22;9199;48.832;9.182;2023-04-24T14:21:43;16.90;80.60
18147;DHT22;9199;48.832;9.182;2023-04-24T14:24:11;16.70;81.50
18147;DHT22;9199;48.832;9.182;2023-04-24T14:26:37;16.90;81.30
18147;DHT22;9199;48.832;9.182;2023-04-24T14:29:04;17.30;79.60
18147;DHT22;9199;48.832;9.182;2023-04-24T14:31:31;18.00;78.40
18147;DHT22;9199;48.832;9.182;2023-04-24T14:33:58;18.60;75.90
18147;DHT22;9199;48.832;9.182;2023-04-24T14:36:24;19.20;75.70
18147;DHT22;9199;48.832;9.182;2023-04-24T14:38:51;19.90;72.60
18147;DHT22;9199;48.832;9.182;2023-04-24T14:41:19;19.40;72.90
18147;DHT22;9199;48.832;9.182;2023-04-24T14:43:46;18.90;73.70
18147;DHT22;9199;48.832;9.182;2023-04-24T14:46:13;17.80;75.40
18147;DHT22;9199;48.832;9.182;2023-04-24T14:48:40;16.80;77.90
18147;DHT22;9199;48.832;9.182;2023-04-24T14:51:06;16.10;79.60
18147;DHT22;9199;48.832;9.182;2023-04-24T14:53:34;15.50;81.60
18147;DHT22;9199;48.832;9.182;2023-04-24T14:56:00;15.30;82.80
18147;DHT22;9199;48.832;9.182;2023-04-24T14:58:29;15.30;83.60
18147;DHT22;9199;48.832;9.182;2023-04-24T15:00:55;15.20;83.10
18147;DHT22;9199;48.832;9.182;2023-04-24T15:03:22;15.50;83.50
18147;DHT22;9199;48.832;9.182;2023-04-24T15:05:49;17.00;79.10
18147;DHT22;9199;48.832;9.182;2023-04-24T15:08:16;18.80;75.30
18147;DHT22;9199;48.832;9.182;2023-04-24T15:10:44;19.70;71.50
18147;DHT22;9199;48.832;9.182;2023-04-24T15:13:10;19.70;72.40
18147;DHT22;9199;48.832;9.182;2023-04-24T15:15:38;19.10;72.20
18147;DHT22;9199;48.832;9.182;2023-04-24T15:18:05;18.00;74.40
18147;DHT22;9199;48.832;9.182;2023-04-24T15:20:33;16.90;76.20
18147;DHT22;9199;48.832;9.182;2023-04-24T15:23:00;16.00;78.80
18147;DHT22;9199;48.832;9.182;2023-04-24T15:25:27;15.40;81.00
18147;DHT22;9199;48.832;9.182;2023-04-24T15:27:54;14.70;82.80
18147;DHT22;9199;48.832;9.182;2023-04-24T15:30:23;14.40;84.70
18147;DHT22;9199;48.832;9.182;2023-04-24T15:32:51;14.10;85.60
18147;DHT22;9199;48.832;9.182;2023-04-24T15:35:18;13.90;87.60
18147;DHT22;9199;48.832;9.182;2023-04-24T15:37:45;13.90;87.90
18147;DHT22;9199;48.832;9.182;2023-04-24T15:40:13;13.80;88.60
18147;DHT22;9199;48.832;9.182;2023-04-24T15:42:41;13.80;90.10
18147;DHT22;9199;48.832;9.182;2023-04-24T15:45:09;14.30;89.80
18147;DHT22;9199;48.832;9.182;2023-04-24T15:47:36;14.60;89.50
18147;DHT22;9199;48.832;9.182;2023-04-24T15:50:05;14.30;88.90